createdAt,value
2022-12-25T00:00:50.353Z,100108.06
2022-12-25T00:05:54.092Z,100141.13
2022-12-25T00:11:05.354Z,100142.47
2022-12-25T00:16:09.838Z,100129.34
2022-12-25T00:21:14.784Z,100138.91
2022-12-25T00:26:19.823Z,100135.69
2022-12-25T00:44:56.907Z,100118.91
2022-12-25T00:50:02.853Z,100114.78
2022-12-25T01:01:41.838Z,100103.63
2022-12-25T01:07:28.635Z,100117.31
2022-12-25T01:19:53.151Z,100106.13
2022-12-25T01:25:58.285Z,100126.00
2022-12-25T01:31:11.630Z,100158.69
2022-12-25T02:32:22.536Z,100009.06
2022-12-25T03:14:19.043Z,100046.44
2022-12-25T03:19:48.580Z,100028.94
2022-12-25T03:25:12.225Z,100021.31
2022-12-25T03:30:43.690Z,100027.25
2022-12-25T03:36:04.064Z,100037.78
2022-12-25T03:41:32.967Z,100039.88
2022-12-25T03:47:10.327Z,100052.75
2022-12-25T03:52:35.596Z,99992.19
2022-12-25T03:57:59.852Z,99971.25
2022-12-25T04:03:24.197Z,99990.59
2022-12-25T04:08:47.488Z,100004.63
2022-12-25T04:14:09.710Z,99993.78
2022-12-25T04:19:33.884Z,99995.19
2022-12-25T04:24:56.165Z,99977.31
2022-12-25T04:30:18.390Z,99939.47
2022-12-25T04:35:52.678Z,99939.06
2022-12-25T04:41:09.851Z,99946.31
2022-12-25T04:46:18.986Z,99926.84
2022-12-25T04:51:28.308Z,99929.81
2022-12-25T04:56:35.655Z,99929.06
2022-12-25T05:01:48.439Z,99945.13
2022-12-25T05:06:59.961Z,99964.56
2022-12-25T05:12:04.156Z,99977.00
2022-12-25T05:17:14.351Z,99963.72
2022-12-25T05:22:37.558Z,99988.28
2022-12-25T05:27:42.764Z,99995.38
2022-12-25T05:32:51.024Z,100001.66
2022-12-25T05:37:58.176Z,99994.22
2022-12-25T05:43:04.375Z,100000.06
2022-12-25T05:48:10.544Z,99993.25
2022-12-25T05:53:18.757Z,99998.56
2022-12-25T05:58:22.926Z,100003.47
2022-12-25T06:03:29.299Z,100005.78
2022-12-25T06:08:42.432Z,100024.16
2022-12-25T06:13:47.536Z,100030.34
2022-12-25T06:18:58.773Z,100020.38
2022-12-25T06:24:07.080Z,99995.91
2022-12-25T07:15:43.123Z,100012.81
2022-12-25T09:29:34.690Z,100315.75
2022-12-25T09:40:42.433Z,100357.66
2022-12-25T09:53:00.006Z,100353.47
2022-12-25T09:58:39.564Z,100356.81
2022-12-25T10:48:07.530Z,100409.38
2022-12-25T10:53:35.341Z,100394.63
2022-12-25T10:58:54.452Z,100384.41
2022-12-25T11:04:09.693Z,100402.88
2022-12-25T11:09:23.891Z,100378.25
2022-12-25T11:14:34.399Z,100356.66
2022-12-25T11:19:43.399Z,100366.69
2022-12-25T11:24:53.490Z,100365.03
2022-12-25T11:30:04.740Z,100358.81
2022-12-25T11:35:17.609Z,100352.94
2022-12-25T11:41:19.140Z,100363.03
2022-12-25T11:47:44.667Z,100327.47
2022-12-25T11:53:52.644Z,100283.78
2022-12-25T12:00:26.525Z,100324.31
2022-12-25T12:10:44.030Z,100343.00
2022-12-25T12:28:07.460Z,100350.78
2022-12-25T12:33:23.525Z,100336.94
2022-12-25T12:38:30.715Z,100338.53
2022-12-25T12:44:04.096Z,100323.03
2022-12-25T13:12:56.347Z,100316.88
2022-12-25T13:18:05.990Z,100312.63
2022-12-25T13:23:25.296Z,100306.31
2022-12-25T13:28:33.446Z,100291.97
2022-12-25T13:33:36.942Z,100291.63
2022-12-25T13:38:49.857Z,100329.19
2022-12-25T13:43:59.685Z,100326.69
2022-12-25T13:49:03.161Z,100327.94
2022-12-25T13:54:37.430Z,100343.88
2022-12-25T13:59:51.802Z,100335.53
2022-12-25T14:11:11.599Z,100358.94
2022-12-25T14:16:21.446Z,100342.97
2022-12-25T14:21:50.890Z,100311.47
2022-12-25T14:27:01.172Z,100289.97
2022-12-25T14:32:19.435Z,100261.84
2022-12-25T14:37:31.761Z,100262.81
2022-12-25T14:42:52.219Z,100277.03
2022-12-25T14:48:25.730Z,100308.38
2022-12-25T14:53:46.534Z,100308.06
2022-12-25T14:58:55.560Z,100283.69
2022-12-25T15:04:21.643Z,100280.63
2022-12-25T15:09:28.865Z,100297.09
2022-12-25T15:14:42.351Z,100304.28
2022-12-25T15:19:50.536Z,100321.34
2022-12-25T15:25:00.583Z,100324.66
2022-12-25T15:30:10.424Z,100352.28
2022-12-25T15:35:22.120Z,100361.00
2022-12-25T15:40:25.335Z,100381.38
2022-12-25T15:45:34.595Z,100393.09
2022-12-25T15:51:34.366Z,100398.31
2022-12-25T15:57:15.755Z,100391.34
2022-12-25T16:02:28.679Z,100384.00
2022-12-25T16:07:38.017Z,100356.63
2022-12-25T16:13:02.099Z,100341.09
2022-12-25T16:20:03.957Z,100320.56
2022-12-25T16:41:49.808Z,100339.88
2022-12-25T16:46:55.040Z,100365.53
2022-12-25T16:52:01.135Z,100326.03
2022-12-25T16:57:34.911Z,100331.69
2022-12-25T17:02:42.310Z,100354.06
2022-12-25T17:08:44.583Z,100404.16
2022-12-25T17:15:58.437Z,100404.75
2022-12-25T17:21:35.191Z,100417.31
2022-12-25T17:38:32.061Z,100470.78
2022-12-25T17:43:48.007Z,100481.22
2022-12-25T17:48:53.475Z,100468.88
2022-12-25T17:59:40.991Z,100500.81
2022-12-25T18:04:45.235Z,100520.88
2022-12-25T18:09:51.427Z,100528.44
2022-12-25T18:14:55.618Z,100544.94
2022-12-25T18:26:20.324Z,100522.75
2022-12-25T18:31:26.621Z,100518.59
2022-12-25T18:36:32.694Z,100521.41
2022-12-25T18:41:59.987Z,100523.25
2022-12-25T18:47:04.175Z,100520.28
2022-12-25T18:52:48.522Z,100534.00
2022-12-25T18:57:38.487Z,100570.44
2022-12-25T19:03:00.023Z,100579.72
2022-12-25T19:08:19.100Z,100574.50
2022-12-25T19:13:24.812Z,100586.03
2022-12-25T19:26:24.689Z,100600.88
2022-12-25T19:56:22.598Z,100615.47
2022-12-25T20:26:14.384Z,100659.94
2022-12-25T20:31:24.645Z,100647.31
2022-12-25T20:36:37.524Z,100658.94
2022-12-25T20:41:51.210Z,100658.94
2022-12-25T20:47:04.360Z,100659.88
2022-12-25T20:52:34.265Z,100682.75
2022-12-25T21:38:13.164Z,100783.44
2022-12-25T21:43:19.589Z,100788.94
2022-12-25T22:36:56.132Z,100780.69
2022-12-25T23:10:13.675Z,100828.81
